Eurika — LYRZ — position and weather

sailwx.info

Track history (hours):
 
Tides and Currents Weather Stations Pressure Air Temp Water Temp Dewpoint Dewpoint Depression Visibility Wind Speed Wind Dir Waves Ship Positions

Eurika

Last reported at 2014-Nov-01 13:33 UTC. Time now 2014-Nov-01 14:08 UTC.
Position N 43°16' E 005°01'.

Length 79 m; draft 3.2 m.

MMSI: 277335000.

Date/timePositionNaut miles runAvg speedWind from/ knotsBaromVisibWave heightAir tempDewpointWater temp
2014-Nov-01 13:33N 43°16' E 005°01'27 3.6
2014-Nov-01 06:10N 42°59' E 005°30'5 8.9
2014-Nov-01 05:33N 42°56' E 005°36'8 8.4
2014-Nov-01 04:33N 42°51' E 005°45'9 9.5
2014-Nov-01 03:33N 42°45' E 005°55'27 8.8
2014-Nov-01 00:29N 42°27' E 006°22'11 8.5
2014-Oct-31 23:14N 42°19' E 006°33'6 8.1
2014-Oct-31 22:33N 42°16' E 006°38'  
2014-Oct-25 23:30N 43°16' E 005°02'8 8.5
2014-Oct-25 22:33N 43°23' E 004°56'5 5.4
2014-Oct-25 21:32N 43°23' E 004°49'  
Track history (hours):
 
Tides and Currents Weather Stations Pressure Air Temp Water Temp Dewpoint Dewpoint Depression Visibility Wind Speed Wind Dir Waves Ship Positions

Eurika

Last reported at 2014-Nov-01 13:33 UTC. Time now 2014-Nov-01 14:08 UTC.
Position N 43°16' E 005°01'.

Length 79 m; draft 3.2 m.

MMSI: 277335000.

Date/timePositionNaut miles runAvg speedWind from/ knotsBaromVisibWave heightAir tempDewpointWater temp
2014-Nov-01 13:33N 43°16' E 005°01'27 3.6
2014-Nov-01 06:10N 42°59' E 005°30'5 8.9
2014-Nov-01 05:33N 42°56' E 005°36'8 8.4
2014-Nov-01 04:33N 42°51' E 005°45'9 9.5
2014-Nov-01 03:33N 42°45' E 005°55'27 8.8
2014-Nov-01 00:29N 42°27' E 006°22'11 8.5
2014-Oct-31 23:14N 42°19' E 006°33'6 8.1
2014-Oct-31 22:33N 42°16' E 006°38'  
2014-Oct-25 23:30N 43°16' E 005°02'8 8.5
2014-Oct-25 22:33N 43°23' E 004°56'5 5.4
2014-Oct-25 21:32N 43°23' E 004°49'  

Dump ship's entire track history